sensor_id;sensor_type;location;lat;lon;timestamp;temperature;humidity
26641;DHT22;14269;47.358;0.724;2022-08-21T00:00:17;21.0;55.0
26641;DHT22;14269;47.358;0.724;2022-08-21T00:02:59;21.0;54.0
26641;DHT22;14269;47.358;0.724;2022-08-21T00:05:40;21.0;54.0
26641;DHT22;14269;47.358;0.724;2022-08-21T00:08:20;21.0;55.0
26641;DHT22;14269;47.358;0.724;2022-08-21T00:10:52;21.0;55.0
26641;DHT22;14269;47.358;0.724;2022-08-21T00:13:33;21.0;55.0
26641;DHT22;14269;47.358;0.724;2022-08-21T00:16:04;21.0;54.0
26641;DHT22;14269;47.358;0.724;2022-08-21T00:18:36;21.0;55.0
26641;DHT22;14269;47.358;0.724;2022-08-21T00:21:08;21.0;55.0
26641;DHT22;14269;47.358;0.724;2022-08-21T00:23:39;21.0;55.0
26641;DHT22;14269;47.358;0.724;2022-08-21T00:26:11;21.0;55.0
26641;DHT22;14269;47.358;0.724;2022-08-21T00:28:42;21.0;55.0
26641;DHT22;14269;47.358;0.724;2022-08-21T00:31:24;21.0;55.0
26641;DHT22;14269;47.358;0.724;2022-08-21T00:33:56;21.0;55.0
26641;DHT22;14269;47.358;0.724;2022-08-21T00:36:28;20.0;55.0
26641;DHT22;14269;47.358;0.724;2022-08-21T00:38:59;20.0;55.0
26641;DHT22;14269;47.358;0.724;2022-08-21T00:41:31;20.0;55.0
26641;DHT22;14269;47.358;0.724;2022-08-21T00:44:04;20.0;55.0
26641;DHT22;14269;47.358;0.724;2022-08-21T00:46:44;20.0;55.0
26641;DHT22;14269;47.358;0.724;2022-08-21T00:49:17;20.0;55.0
26641;DHT22;14269;47.358;0.724;2022-08-21T00:51:59;20.0;55.0
26641;DHT22;14269;47.358;0.724;2022-08-21T00:54:40;20.0;55.0
26641;DHT22;14269;47.358;0.724;2022-08-21T00:57:25;20.0;55.0
26641;DHT22;14269;47.358;0.724;2022-08-21T01:00:07;20.0;55.0
26641;DHT22;14269;47.358;0.724;2022-08-21T01:02:45;20.0;55.0
26641;DHT22;14269;47.358;0.724;2022-08-21T01:05:16;20.0;55.0
26641;DHT22;14269;47.358;0.724;2022-08-21T01:07:48;20.0;55.0
26641;DHT22;14269;47.358;0.724;2022-08-21T01:10:20;20.0;54.0
26641;DHT22;14269;47.358;0.724;2022-08-21T01:12:52;20.0;54.0
26641;DHT22;14269;47.358;0.724;2022-08-21T01:15:38;20.0;55.0
26641;DHT22;14269;47.358;0.724;2022-08-21T01:18:16;20.0;55.0
26641;DHT22;14269;47.358;0.724;2022-08-21T01:20:59;20.0;55.0
26641;DHT22;14269;47.358;0.724;2022-08-21T01:23:41;20.0;54.0
26641;DHT22;14269;47.358;0.724;2022-08-21T01:26:31;20.0;54.0
26641;DHT22;14269;47.358;0.724;2022-08-21T01:29:28;20.0;54.0
26641;DHT22;14269;47.358;0.724;2022-08-21T01:32:07;20.0;54.0
26641;DHT22;14269;47.358;0.724;2022-08-21T01:34:47;20.0;55.0
26641;DHT22;14269;47.358;0.724;2022-08-21T01:37:27;20.0;54.0
26641;DHT22;14269;47.358;0.724;2022-08-21T01:39:59;20.0;54.0
26641;DHT22;14269;47.358;0.724;2022-08-21T01:42:31;20.0;54.0
26641;DHT22;14269;47.358;0.724;2022-08-21T01:45:03;20.0;54.0
26641;DHT22;14269;47.358;0.724;2022-08-21T01:47:44;20.0;54.0
26641;DHT22;14269;47.358;0.724;2022-08-21T01:50:17;20.0;54.0
26641;DHT22;14269;47.358;0.724;2022-08-21T01:52:58;20.0;54.0
26641;DHT22;14269;47.358;0.724;2022-08-21T01:55:29;20.0;54.0
26641;DHT22;14269;47.358;0.724;2022-08-21T01:58:01;20.0;54.0
26641;DHT22;14269;47.358;0.724;2022-08-21T02:00:32;20.0;54.0
26641;DHT22;14269;47.358;0.724;2022-08-21T02:03:04;20.0;54.0
26641;DHT22;14269;47.358;0.724;2022-08-21T02:05:36;20.0;55.0
26641;DHT22;14269;47.358;0.724;2022-08-21T02:08:07;20.0;54.0
26641;DHT22;14269;47.358;0.724;2022-08-21T02:10:41;20.0;54.0
26641;DHT22;14269;47.358;0.724;2022-08-21T02:13:21;20.0;54.0
26641;DHT22;14269;47.358;0.724;2022-08-21T02:15:52;20.0;54.0
26641;DHT22;14269;47.358;0.724;2022-08-21T02:18:24;20.0;54.0
26641;DHT22;14269;47.358;0.724;2022-08-21T02:20:56;20.0;54.0
26641;DHT22;14269;47.358;0.724;2022-08-21T02:23:27;20.0;54.0
26641;DHT22;14269;47.358;0.724;2022-08-21T02:26:00;20.0;54.0
26641;DHT22;14269;47.358;0.724;2022-08-21T02:28:41;20.0;54.0
26641;DHT22;14269;47.358;0.724;2022-08-21T02:31:22;20.0;55.0
26641;DHT22;14269;47.358;0.724;2022-08-21T02:33:54;20.0;54.0
26641;DHT22;14269;47.358;0.724;2022-08-21T02:36:26;20.0;55.0
26641;DHT22;14269;47.358;0.724;2022-08-21T02:38:57;20.0;55.0
26641;DHT22;14269;47.358;0.724;2022-08-21T02:41:29;20.0;55.0
26641;DHT22;14269;47.358;0.724;2022-08-21T02:44:01;20.0;55.0
26641;DHT22;14269;47.358;0.724;2022-08-21T02:46:32;20.0;55.0
26641;DHT22;14269;47.358;0.724;2022-08-21T02:49:04;20.0;55.0
26641;DHT22;14269;47.358;0.724;2022-08-21T02:51:36;19.0;55.0
26641;DHT22;14269;47.358;0.724;2022-08-21T02:54:07;20.0;55.0
26641;DHT22;14269;47.358;0.724;2022-08-21T02:56:39;19.0;56.0
26641;DHT22;14269;47.358;0.724;2022-08-21T02:59:10;19.0;56.0
26641;DHT22;14269;47.358;0.724;2022-08-21T03:01:42;19.0;56.0
26641;DHT22;14269;47.358;0.724;2022-08-21T03:04:14;19.0;56.0
26641;DHT22;14269;47.358;0.724;2022-08-21T03:06:45;19.0;56.0
26641;DHT22;14269;47.358;0.724;2022-08-21T03:09:17;19.0;56.0
26641;DHT22;14269;47.358;0.724;2022-08-21T03:11:49;19.0;56.0
26641;DHT22;14269;47.358;0.724;2022-08-21T03:14:20;19.0;57.0
26641;DHT22;14269;47.358;0.724;2022-08-21T03:16:52;19.0;57.0
26641;DHT22;14269;47.358;0.724;2022-08-21T03:19:24;19.0;57.0
26641;DHT22;14269;47.358;0.724;2022-08-21T03:21:55;19.0;57.0
26641;DHT22;14269;47.358;0.724;2022-08-21T03:24:27;19.0;57.0
26641;DHT22;14269;47.358;0.724;2022-08-21T03:26:59;19.0;57.0
26641;DHT22;14269;47.358;0.724;2022-08-21T03:29:30;19.0;57.0
26641;DHT22;14269;47.358;0.724;2022-08-21T03:32:02;19.0;57.0
26641;DHT22;14269;47.358;0.724;2022-08-21T03:34:33;19.0;57.0
26641;DHT22;14269;47.358;0.724;2022-08-21T03:37:07;19.0;58.0
26641;DHT22;14269;47.358;0.724;2022-08-21T03:39:47;19.0;58.0
26641;DHT22;14269;47.358;0.724;2022-08-21T03:42:19;19.0;58.0
26641;DHT22;14269;47.358;0.724;2022-08-21T03:44:50;19.0;59.0
26641;DHT22;14269;47.358;0.724;2022-08-21T03:47:22;19.0;58.0
26641;DHT22;14269;47.358;0.724;2022-08-21T03:49:54;19.0;58.0
26641;DHT22;14269;47.358;0.724;2022-08-21T03:52:25;19.0;59.0
26641;DHT22;14269;47.358;0.724;2022-08-21T03:54:57;19.0;58.0
26641;DHT22;14269;47.358;0.724;2022-08-21T03:57:28;19.0;59.0
26641;DHT22;14269;47.358;0.724;2022-08-21T04:00:00;19.0;60.0
26641;DHT22;14269;47.358;0.724;2022-08-21T04:02:32;19.0;60.0
26641;DHT22;14269;47.358;0.724;2022-08-21T04:05:05;18.0;60.0
26641;DHT22;14269;47.358;0.724;2022-08-21T04:07:45;18.0;61.0
26641;DHT22;14269;47.358;0.724;2022-08-21T04:10:17;18.0;61.0
26641;DHT22;14269;47.358;0.724;2022-08-21T04:12:49;18.0;60.0
26641;DHT22;14269;47.358;0.724;2022-08-21T04:15:22;18.0;60.0
26641;DHT22;14269;47.358;0.724;2022-08-21T04:18:02;18.0;61.0
26641;DHT22;14269;47.358;0.724;2022-08-21T04:20:34;18.0;61.0
26641;DHT22;14269;47.358;0.724;2022-08-21T04:23:05;18.0;62.0
26641;DHT22;14269;47.358;0.724;2022-08-21T04:25:37;18.0;62.0
26641;DHT22;14269;47.358;0.724;2022-08-21T04:28:08;18.0;61.0
26641;DHT22;14269;47.358;0.724;2022-08-21T04:30:40;18.0;62.0
26641;DHT22;14269;47.358;0.724;2022-08-21T04:33:12;18.0;62.0
26641;DHT22;14269;47.358;0.724;2022-08-21T04:35:43;18.0;61.0
26641;DHT22;14269;47.358;0.724;2022-08-21T04:38:15;18.0;62.0
26641;DHT22;14269;47.358;0.724;2022-08-21T04:40:48;18.0;62.0
26641;DHT22;14269;47.358;0.724;2022-08-21T04:43:28;18.0;62.0
26641;DHT22;14269;47.358;0.724;2022-08-21T04:46:00;18.0;62.0
26641;DHT22;14269;47.358;0.724;2022-08-21T04:48:32;18.0;62.0
26641;DHT22;14269;47.358;0.724;2022-08-21T04:51:07;18.0;62.0
26641;DHT22;14269;47.358;0.724;2022-08-21T04:53:49;18.0;62.0
26641;DHT22;14269;47.358;0.724;2022-08-21T04:56:31;18.0;62.0
26641;DHT22;14269;47.358;0.724;2022-08-21T04:59:12;18.0;62.0
26641;DHT22;14269;47.358;0.724;2022-08-21T05:01:51;18.0;61.0
26641;DHT22;14269;47.358;0.724;2022-08-21T05:04:24;18.0;61.0
26641;DHT22;14269;47.358;0.724;2022-08-21T05:07:06;18.0;62.0
26641;DHT22;14269;47.358;0.724;2022-08-21T05:09:46;18.0;61.0
26641;DHT22;14269;47.358;0.724;2022-08-21T05:12:18;18.0;62.0
26641;DHT22;14269;47.358;0.724;2022-08-21T05:14:49;18.0;63.0
26641;DHT22;14269;47.358;0.724;2022-08-21T05:17:21;18.0;63.0
26641;DHT22;14269;47.358;0.724;2022-08-21T05:19:52;18.0;63.0
26641;DHT22;14269;47.358;0.724;2022-08-21T05:22:24;18.0;63.0
26641;DHT22;14269;47.358;0.724;2022-08-21T05:24:57;18.0;62.0
26641;DHT22;14269;47.358;0.724;2022-08-21T05:27:38;18.0;63.0
26641;DHT22;14269;47.358;0.724;2022-08-21T05:30:10;18.0;63.0
26641;DHT22;14269;47.358;0.724;2022-08-21T05:32:56;18.0;63.0
26641;DHT22;14269;47.358;0.724;2022-08-21T05:35:33;18.0;64.0
26641;DHT22;14269;47.358;0.724;2022-08-21T05:38:05;18.0;63.0
26641;DHT22;14269;47.358;0.724;2022-08-21T05:40:36;18.0;63.0
26641;DHT22;14269;47.358;0.724;2022-08-21T05:43:07;18.0;64.0
26641;DHT22;14269;47.358;0.724;2022-08-21T05:45:39;18.0;64.0
26641;DHT22;14269;47.358;0.724;2022-08-21T05:48:13;18.0;64.0
26641;DHT22;14269;47.358;0.724;2022-08-21T05:50:52;18.0;64.0
26641;DHT22;14269;47.358;0.724;2022-08-21T05:53:25;18.0;64.0
26641;DHT22;14269;47.358;0.724;2022-08-21T05:55:56;18.0;65.0
26641;DHT22;14269;47.358;0.724;2022-08-21T05:58:28;18.0;64.0
26641;DHT22;14269;47.358;0.724;2022-08-21T06:01:00;18.0;64.0
26641;DHT22;14269;47.358;0.724;2022-08-21T06:03:41;18.0;64.0
26641;DHT22;14269;47.358;0.724;2022-08-21T06:06:22;18.0;65.0
26641;DHT22;14269;47.358;0.724;2022-08-21T06:08:54;18.0;65.0
26641;DHT22;14269;47.358;0.724;2022-08-21T06:11:26;18.0;65.0
26641;DHT22;14269;47.358;0.724;2022-08-21T06:13:58;18.0;65.0
26641;DHT22;14269;47.358;0.724;2022-08-21T06:16:29;18.0;65.0
26641;DHT22;14269;47.358;0.724;2022-08-21T06:19:01;18.0;64.0
26641;DHT22;14269;47.358;0.724;2022-08-21T06:21:32;19.0;63.0
26641;DHT22;14269;47.358;0.724;2022-08-21T06:24:05;18.0;64.0
26641;DHT22;14269;47.358;0.724;2022-08-21T06:26:46;19.0;65.0
26641;DHT22;14269;47.358;0.724;2022-08-21T06:29:19;19.0;64.0
26641;DHT22;14269;47.358;0.724;2022-08-21T06:31:59;19.0;64.0
26641;DHT22;14269;47.358;0.724;2022-08-21T06:34:31;19.0;64.0
26641;DHT22;14269;47.358;0.724;2022-08-21T06:37:02;19.0;63.0
26641;DHT22;14269;47.358;0.724;2022-08-21T06:39:34;19.0;64.0
26641;DHT22;14269;47.358;0.724;2022-08-21T06:42:06;19.0;64.0
26641;DHT22;14269;47.358;0.724;2022-08-21T06:44:37;19.0;64.0
26641;DHT22;14269;47.358;0.724;2022-08-21T06:47:09;19.0;65.0
26641;DHT22;14269;47.358;0.724;2022-08-21T06:49:41;19.0;64.0
26641;DHT22;14269;47.358;0.724;2022-08-21T06:52:13;19.0;65.0
26641;DHT22;14269;47.358;0.724;2022-08-21T06:54:44;19.0;64.0
26641;DHT22;14269;47.358;0.724;2022-08-21T06:57:16;19.0;64.0
26641;DHT22;14269;47.358;0.724;2022-08-21T06:59:47;19.0;64.0
26641;DHT22;14269;47.358;0.724;2022-08-21T07:02:19;19.0;65.0
26641;DHT22;14269;47.358;0.724;2022-08-21T07:04:51;19.0;64.0
26641;DHT22;14269;47.358;0.724;2022-08-21T07:07:22;19.0;64.0
26641;DHT22;14269;47.358;0.724;2022-08-21T07:09:54;19.0;63.0
26641;DHT22;14269;47.358;0.724;2022-08-21T07:12:26;20.0;63.0
26641;DHT22;14269;47.358;0.724;2022-08-21T07:14:58;20.0;63.0
26641;DHT22;14269;47.358;0.724;2022-08-21T07:17:29;19.0;63.0
26641;DHT22;14269;47.358;0.724;2022-08-21T07:20:01;20.0;63.0
26641;DHT22;14269;47.358;0.724;2022-08-21T07:22:33;19.0;63.0
26641;DHT22;14269;47.358;0.724;2022-08-21T07:25:14;19.0;64.0
26641;DHT22;14269;47.358;0.724;2022-08-21T07:27:45;19.0;64.0
26641;DHT22;14269;47.358;0.724;2022-08-21T07:30:17;19.0;64.0
26641;DHT22;14269;47.358;0.724;2022-08-21T07:32:49;19.0;64.0
26641;DHT22;14269;47.358;0.724;2022-08-21T07:35:22;19.0;65.0
26641;DHT22;14269;47.358;0.724;2022-08-21T07:38:02;19.0;64.0
26641;DHT22;14269;47.358;0.724;2022-08-21T07:40:34;19.0;64.0
26641;DHT22;14269;47.358;0.724;2022-08-21T07:43:05;19.0;65.0
26641;DHT22;14269;47.358;0.724;2022-08-21T07:45:37;19.0;65.0
26641;DHT22;14269;47.358;0.724;2022-08-21T07:48:09;19.0;65.0
26641;DHT22;14269;47.358;0.724;2022-08-21T07:50:41;19.0;65.0
26641;DHT22;14269;47.358;0.724;2022-08-21T07:53:12;19.0;66.0
26641;DHT22;14269;47.358;0.724;2022-08-21T07:55:44;19.0;66.0
26641;DHT22;14269;47.358;0.724;2022-08-21T07:58:15;19.0;66.0
26641;DHT22;14269;47.358;0.724;2022-08-21T08:00:47;19.0;66.0
26641;DHT22;14269;47.358;0.724;2022-08-21T08:03:19;19.0;65.0
26641;DHT22;14269;47.358;0.724;2022-08-21T08:05:50;19.0;65.0
26641;DHT22;14269;47.358;0.724;2022-08-21T08:08:22;19.0;65.0
26641;DHT22;14269;47.358;0.724;2022-08-21T08:10:56;19.0;65.0
26641;DHT22;14269;47.358;0.724;2022-08-21T08:13:38;19.0;65.0
26641;DHT22;14269;47.358;0.724;2022-08-21T08:16:17;19.0;65.0
26641;DHT22;14269;47.358;0.724;2022-08-21T08:18:49;19.0;64.0
26641;DHT22;14269;47.358;0.724;2022-08-21T08:21:21;19.0;65.0
26641;DHT22;14269;47.358;0.724;2022-08-21T08:23:52;19.0;65.0
26641;DHT22;14269;47.358;0.724;2022-08-21T08:26:24;19.0;65.0
26641;DHT22;14269;47.358;0.724;2022-08-21T08:28:55;19.0;65.0
26641;DHT22;14269;47.358;0.724;2022-08-21T08:31:27;19.0;65.0
26641;DHT22;14269;47.358;0.724;2022-08-21T08:33:59;19.0;65.0
26641;DHT22;14269;47.358;0.724;2022-08-21T08:36:32;19.0;66.0
26641;DHT22;14269;47.358;0.724;2022-08-21T08:39:12;19.0;65.0
26641;DHT22;14269;47.358;0.724;2022-08-21T08:41:45;19.0;65.0
26641;DHT22;14269;47.358;0.724;2022-08-21T08:44:26;19.0;65.0
26641;DHT22;14269;47.358;0.724;2022-08-21T08:46:57;19.0;65.0
26641;DHT22;14269;47.358;0.724;2022-08-21T08:49:42;19.0;64.0
26641;DHT22;14269;47.358;0.724;2022-08-21T08:52:24;19.0;65.0
26641;DHT22;14269;47.358;0.724;2022-08-21T08:55:04;19.0;65.0
26641;DHT22;14269;47.358;0.724;2022-08-21T08:57:46;19.0;65.0
26641;DHT22;14269;47.358;0.724;2022-08-21T09:00:26;20.0;64.0
26641;DHT22;14269;47.358;0.724;2022-08-21T09:03:00;20.0;65.0
26641;DHT22;14269;47.358;0.724;2022-08-21T09:05:43;20.0;64.0
26641;DHT22;14269;47.358;0.724;2022-08-21T09:08:33;19.0;65.0
26641;DHT22;14269;47.358;0.724;2022-08-21T09:11:17;20.0;65.0
26641;DHT22;14269;47.358;0.724;2022-08-21T09:14:01;20.0;64.0
26641;DHT22;14269;47.358;0.724;2022-08-21T09:16:43;20.0;64.0
26641;DHT22;14269;47.358;0.724;2022-08-21T09:19:30;20.0;63.0
26641;DHT22;14269;47.358;0.724;2022-08-21T09:22:19;20.0;64.0
26641;DHT22;14269;47.358;0.724;2022-08-21T09:25:00;20.0;63.0
26641;DHT22;14269;47.358;0.724;2022-08-21T09:27:34;20.0;63.0
26641;DHT22;14269;47.358;0.724;2022-08-21T09:30:16;20.0;63.0
26641;DHT22;14269;47.358;0.724;2022-08-21T09:32:47;20.0;62.0
26641;DHT22;14269;47.358;0.724;2022-08-21T09:35:20;21.0;62.0
26641;DHT22;14269;47.358;0.724;2022-08-21T09:38:05;21.0;62.0
26641;DHT22;14269;47.358;0.724;2022-08-21T09:40:44;21.0;60.0
26641;DHT22;14269;47.358;0.724;2022-08-21T09:43:25;21.0;60.0
26641;DHT22;14269;47.358;0.724;2022-08-21T09:46:08;22.0;58.0
26641;DHT22;14269;47.358;0.724;2022-08-21T09:48:50;22.0;58.0
26641;DHT22;14269;47.358;0.724;2022-08-21T09:51:31;22.0;57.0
26641;DHT22;14269;47.358;0.724;2022-08-21T09:54:15;22.0;57.0
26641;DHT22;14269;47.358;0.724;2022-08-21T09:57:59;22.0;57.0
26641;DHT22;14269;47.358;0.724;2022-08-21T10:00:36;22.0;56.0
26641;DHT22;14269;47.358;0.724;2022-08-21T10:03:10;23.0;56.0
26641;DHT22;14269;47.358;0.724;2022-08-21T10:05:52;23.0;56.0
26641;DHT22;14269;47.358;0.724;2022-08-21T10:08:31;23.0;55.0
26641;DHT22;14269;47.358;0.724;2022-08-21T10:11:14;23.0;55.0
26641;DHT22;14269;47.358;0.724;2022-08-21T10:13:58;23.0;53.0
26641;DHT22;14269;47.358;0.724;2022-08-21T10:16:42;23.0;53.0
26641;DHT22;14269;47.358;0.724;2022-08-21T10:19:25;23.0;53.0
26641;DHT22;14269;47.358;0.724;2022-08-21T10:22:05;23.0;53.0
26641;DHT22;14269;47.358;0.724;2022-08-21T10:24:45;23.0;53.0
26641;DHT22;14269;47.358;0.724;2022-08-21T10:27:32;23.0;53.0
26641;DHT22;14269;47.358;0.724;2022-08-21T10:30:20;23.0;53.0
26641;DHT22;14269;47.358;0.724;2022-08-21T10:33:04;22.0;55.0
26641;DHT22;14269;47.358;0.724;2022-08-21T10:35:52;23.0;55.0
26641;DHT22;14269;47.358;0.724;2022-08-21T10:39:09;23.0;54.0
26641;DHT22;14269;47.358;0.724;2022-08-21T10:42:09;23.0;55.0
26641;DHT22;14269;47.358;0.724;2022-08-21T10:44:53;23.0;54.0
26641;DHT22;14269;47.358;0.724;2022-08-21T10:47:40;23.0;54.0
26641;DHT22;14269;47.358;0.724;2022-08-21T10:50:28;23.0;53.0
26641;DHT22;14269;47.358;0.724;2022-08-21T10:53:20;23.0;54.0
26641;DHT22;14269;47.358;0.724;2022-08-21T10:56:08;23.0;53.0
26641;DHT22;14269;47.358;0.724;2022-08-21T10:58:49;24.0;53.0
26641;DHT22;14269;47.358;0.724;2022-08-21T11:01:29;24.0;52.0
26641;DHT22;14269;47.358;0.724;2022-08-21T11:04:12;24.0;51.0
26641;DHT22;14269;47.358;0.724;2022-08-21T11:06:53;24.0;51.0
26641;DHT22;14269;47.358;0.724;2022-08-21T11:09:31;25.0;50.0
26641;DHT22;14269;47.358;0.724;2022-08-21T11:12:06;25.0;49.0
26641;DHT22;14269;47.358;0.724;2022-08-21T11:14:51;26.0;47.0
26641;DHT22;14269;47.358;0.724;2022-08-21T11:17:30;26.0;46.0
26641;DHT22;14269;47.358;0.724;2022-08-21T11:20:12;27.0;43.0
26641;DHT22;14269;47.358;0.724;2022-08-21T11:22:53;27.0;42.0
26641;DHT22;14269;47.358;0.724;2022-08-21T11:25:35;27.0;43.0
26641;DHT22;14269;47.358;0.724;2022-08-21T11:28:16;27.0;41.0
26641;DHT22;14269;47.358;0.724;2022-08-21T11:30:59;27.0;41.0
26641;DHT22;14269;47.358;0.724;2022-08-21T11:33:47;27.0;42.0
26641;DHT22;14269;47.358;0.724;2022-08-21T11:36:33;26.0;41.0
26641;DHT22;14269;47.358;0.724;2022-08-21T11:39:16;26.0;43.0
26641;DHT22;14269;47.358;0.724;2022-08-21T11:42:06;26.0;43.0
26641;DHT22;14269;47.358;0.724;2022-08-21T11:44:50;27.0;43.0
26641;DHT22;14269;47.358;0.724;2022-08-21T11:47:31;27.0;43.0
26641;DHT22;14269;47.358;0.724;2022-08-21T11:50:15;26.0;42.0
26641;DHT22;14269;47.358;0.724;2022-08-21T11:52:52;26.0;43.0
26641;DHT22;14269;47.358;0.724;2022-08-21T11:55:32;26.0;43.0
26641;DHT22;14269;47.358;0.724;2022-08-21T11:58:16;26.0;43.0
26641;DHT22;14269;47.358;0.724;2022-08-21T12:00:56;26.0;43.0
26641;DHT22;14269;47.358;0.724;2022-08-21T12:03:39;26.0;43.0
26641;DHT22;14269;47.358;0.724;2022-08-21T12:06:29;26.0;44.0
26641;DHT22;14269;47.358;0.724;2022-08-21T12:12:05;26.0;43.0
26641;DHT22;14269;47.358;0.724;2022-08-21T12:14:47;27.0;43.0
26641;DHT22;14269;47.358;0.724;2022-08-21T12:17:35;27.0;44.0
26641;DHT22;14269;47.358;0.724;2022-08-21T12:20:34;27.0;43.0
26641;DHT22;14269;47.358;0.724;2022-08-21T12:23:24;27.0;43.0
26641;DHT22;14269;47.358;0.724;2022-08-21T12:26:09;27.0;43.0
26641;DHT22;14269;47.358;0.724;2022-08-21T12:28:42;27.0;43.0
26641;DHT22;14269;47.358;0.724;2022-08-21T12:31:19;26.0;44.0
26641;DHT22;14269;47.358;0.724;2022-08-21T12:33:58;26.0;44.0
26641;DHT22;14269;47.358;0.724;2022-08-21T12:36:42;26.0;44.0
26641;DHT22;14269;47.358;0.724;2022-08-21T12:39:26;26.0;44.0
26641;DHT22;14269;47.358;0.724;2022-08-21T12:42:05;26.0;43.0
26641;DHT22;14269;47.358;0.724;2022-08-21T12:44:44;26.0;44.0
26641;DHT22;14269;47.358;0.724;2022-08-21T12:47:28;26.0;45.0
26641;DHT22;14269;47.358;0.724;2022-08-21T12:50:09;25.0;45.0
26641;DHT22;14269;47.358;0.724;2022-08-21T12:52:55;25.0;45.0
26641;DHT22;14269;47.358;0.724;2022-08-21T12:55:31;25.0;46.0
26641;DHT22;14269;47.358;0.724;2022-08-21T12:58:17;26.0;46.0
26641;DHT22;14269;47.358;0.724;2022-08-21T13:00:56;25.0;46.0
26641;DHT22;14269;47.358;0.724;2022-08-21T13:03:36;26.0;45.0
26641;DHT22;14269;47.358;0.724;2022-08-21T13:06:18;26.0;45.0
26641;DHT22;14269;47.358;0.724;2022-08-21T13:09:05;25.0;46.0
26641;DHT22;14269;47.358;0.724;2022-08-21T13:11:41;25.0;46.0
26641;DHT22;14269;47.358;0.724;2022-08-21T13:14:25;25.0;46.0
26641;DHT22;14269;47.358;0.724;2022-08-21T13:17:04;26.0;46.0
26641;DHT22;14269;47.358;0.724;2022-08-21T13:19:53;25.0;46.0
26641;DHT22;14269;47.358;0.724;2022-08-21T13:22:28;25.0;46.0
26641;DHT22;14269;47.358;0.724;2022-08-21T13:25:10;26.0;45.0
26641;DHT22;14269;47.358;0.724;2022-08-21T13:27:59;26.0;46.0
26641;DHT22;14269;47.358;0.724;2022-08-21T13:30:32;26.0;45.0
26641;DHT22;14269;47.358;0.724;2022-08-21T13:33:15;26.0;45.0
26641;DHT22;14269;47.358;0.724;2022-08-21T13:36:01;26.0;45.0
26641;DHT22;14269;47.358;0.724;2022-08-21T13:38:40;26.0;45.0
26641;DHT22;14269;47.358;0.724;2022-08-21T13:41:22;26.0;45.0
26641;DHT22;14269;47.358;0.724;2022-08-21T13:44:03;26.0;44.0
26641;DHT22;14269;47.358;0.724;2022-08-21T13:46:43;26.0;45.0
26641;DHT22;14269;47.358;0.724;2022-08-21T13:49:30;26.0;45.0
26641;DHT22;14269;47.358;0.724;2022-08-21T13:52:14;26.0;45.0
26641;DHT22;14269;47.358;0.724;2022-08-21T13:54:54;26.0;46.0
26641;DHT22;14269;47.358;0.724;2022-08-21T13:57:32;26.0;45.0
26641;DHT22;14269;47.358;0.724;2022-08-21T14:00:15;27.0;44.0
26641;DHT22;14269;47.358;0.724;2022-08-21T14:02:54;26.0;45.0
26641;DHT22;14269;47.358;0.724;2022-08-21T14:05:38;26.0;46.0
26641;DHT22;14269;47.358;0.724;2022-08-21T14:08:26;26.0;45.0
26641;DHT22;14269;47.358;0.724;2022-08-21T14:10:58;27.0;45.0
26641;DHT22;14269;47.358;0.724;2022-08-21T14:13:36;26.0;45.0
26641;DHT22;14269;47.358;0.724;2022-08-21T14:16:17;27.0;44.0
26641;DHT22;14269;47.358;0.724;2022-08-21T14:19:08;27.0;45.0
26641;DHT22;14269;47.358;0.724;2022-08-21T14:21:46;26.0;46.0
26641;DHT22;14269;47.358;0.724;2022-08-21T14:24:27;26.0;46.0
26641;DHT22;14269;47.358;0.724;2022-08-21T14:27:02;26.0;47.0
26641;DHT22;14269;47.358;0.724;2022-08-21T14:29:41;26.0;46.0
26641;DHT22;14269;47.358;0.724;2022-08-21T14:32:14;26.0;45.0
26641;DHT22;14269;47.358;0.724;2022-08-21T14:34:54;26.0;46.0
26641;DHT22;14269;47.358;0.724;2022-08-21T14:37:25;26.0;46.0
26641;DHT22;14269;47.358;0.724;2022-08-21T14:39:57;26.0;45.0
26641;DHT22;14269;47.358;0.724;2022-08-21T14:42:29;27.0;45.0
26641;DHT22;14269;47.358;0.724;2022-08-21T14:45:04;27.0;44.0
26641;DHT22;14269;47.358;0.724;2022-08-21T14:47:42;27.0;45.0
26641;DHT22;14269;47.358;0.724;2022-08-21T14:50:14;26.0;46.0
26641;DHT22;14269;47.358;0.724;2022-08-21T14:52:45;26.0;46.0
26641;DHT22;14269;47.358;0.724;2022-08-21T14:55:18;26.0;46.0
26641;DHT22;14269;47.358;0.724;2022-08-21T14:57:50;26.0;47.0
26641;DHT22;14269;47.358;0.724;2022-08-21T15:00:30;26.0;47.0
26641;DHT22;14269;47.358;0.724;2022-08-21T15:03:02;26.0;47.0
26641;DHT22;14269;47.358;0.724;2022-08-21T15:05:34;26.0;47.0
26641;DHT22;14269;47.358;0.724;2022-08-21T15:08:05;26.0;47.0
26641;DHT22;14269;47.358;0.724;2022-08-21T15:10:37;26.0;48.0
26641;DHT22;14269;47.358;0.724;2022-08-21T15:13:09;26.0;48.0
26641;DHT22;14269;47.358;0.724;2022-08-21T15:15:43;25.0;48.0
26641;DHT22;14269;47.358;0.724;2022-08-21T15:18:25;25.0;48.0
26641;DHT22;14269;47.358;0.724;2022-08-21T15:21:04;25.0;49.0
26641;DHT22;14269;47.358;0.724;2022-08-21T15:23:35;25.0;49.0
26641;DHT22;14269;47.358;0.724;2022-08-21T15:26:07;25.0;49.0
26641;DHT22;14269;47.358;0.724;2022-08-21T15:28:39;25.0;50.0
26641;DHT22;14269;47.358;0.724;2022-08-21T15:31:10;25.0;50.0
26641;DHT22;14269;47.358;0.724;2022-08-21T15:33:42;25.0;50.0
26641;DHT22;14269;47.358;0.724;2022-08-21T15:36:14;25.0;50.0
26641;DHT22;14269;47.358;0.724;2022-08-21T15:38:45;25.0;51.0
26641;DHT22;14269;47.358;0.724;2022-08-21T15:41:18;25.0;52.0
26641;DHT22;14269;47.358;0.724;2022-08-21T15:43:59;24.0;52.0
26641;DHT22;14269;47.358;0.724;2022-08-21T15:46:30;24.0;54.0
26641;DHT22;14269;47.358;0.724;2022-08-21T15:49:02;24.0;55.0
26641;DHT22;14269;47.358;0.724;2022-08-21T15:51:34;24.0;55.0
26641;DHT22;14269;47.358;0.724;2022-08-21T15:54:05;24.0;55.0
26641;DHT22;14269;47.358;0.724;2022-08-21T15:56:39;24.0;56.0
26641;DHT22;14269;47.358;0.724;2022-08-21T15:59:22;23.0;56.0
26641;DHT22;14269;47.358;0.724;2022-08-21T16:02:00;23.0;57.0
26641;DHT22;14269;47.358;0.724;2022-08-21T16:04:32;24.0;56.0
26641;DHT22;14269;47.358;0.724;2022-08-21T16:07:04;24.0;56.0
26641;DHT22;14269;47.358;0.724;2022-08-21T16:09:36;23.0;56.0
26641;DHT22;14269;47.358;0.724;2022-08-21T16:12:08;23.0;56.0
26641;DHT22;14269;47.358;0.724;2022-08-21T16:14:50;23.0;55.0
26641;DHT22;14269;47.358;0.724;2022-08-21T16:17:33;24.0;55.0
26641;DHT22;14269;47.358;0.724;2022-08-21T16:20:14;24.0;55.0
26641;DHT22;14269;47.358;0.724;2022-08-21T16:22:56;24.0;55.0
26641;DHT22;14269;47.358;0.724;2022-08-21T16:25:37;24.0;55.0
26641;DHT22;14269;47.358;0.724;2022-08-21T16:28:19;23.0;55.0
26641;DHT22;14269;47.358;0.724;2022-08-21T16:30:59;23.0;56.0
26641;DHT22;14269;47.358;0.724;2022-08-21T16:33:33;24.0;56.0
26641;DHT22;14269;47.358;0.724;2022-08-21T16:36:13;24.0;56.0
26641;DHT22;14269;47.358;0.724;2022-08-21T16:38:47;23.0;56.0
26641;DHT22;14269;47.358;0.724;2022-08-21T16:41:30;23.0;56.0
26641;DHT22;14269;47.358;0.724;2022-08-21T16:44:09;23.0;55.0
26641;DHT22;14269;47.358;0.724;2022-08-21T16:46:50;23.0;54.0
26641;DHT22;14269;47.358;0.724;2022-08-21T16:49:21;23.0;54.0
26641;DHT22;14269;47.358;0.724;2022-08-21T16:51:53;23.0;55.0
26641;DHT22;14269;47.358;0.724;2022-08-21T16:54:25;23.0;55.0
26641;DHT22;14269;47.358;0.724;2022-08-21T16:56:57;23.0;56.0
26641;DHT22;14269;47.358;0.724;2022-08-21T16:59:39;23.0;56.0
26641;DHT22;14269;47.358;0.724;2022-08-21T17:02:25;23.0;56.0
26641;DHT22;14269;47.358;0.724;2022-08-21T17:05:02;23.0;56.0
26641;DHT22;14269;47.358;0.724;2022-08-21T17:07:44;23.0;57.0